ADDS METAR Data INFO
IDs: Format: Raw Decoded Include TAF

Data at: 0103 UTC 24 Aug 2017

KPTV 240056Z AUTO 33008KT 10SM 36/15 A2980 RMK AO2 SLP094 T03560150 $
KPTV 232356Z AUTO 35006KT 10SM 36/15 A2981 RMK AO2 SLP097 T03610150 10361 20294 56022 TSNO $
KPTV 232256Z AUTO VRB04KT 10SM 36/16 A2983 RMK AO2 SLP103 T03560156 $
KPTV 232156Z AUTO 31008KT 10SM 35/16 A2985 RMK AO2 SLP111 T03500161 TSNO $
KPTV 232056Z AUTO 30007KT 10SM 34/17 A2987 RMK AO2 SLP119 T03390167 56020 $
KPTV 231956Z AUTO 28005KT 10SM 33/16 A2989 RMK AO2 SLP125 T03330156 $
KPTV 231856Z AUTO VRB05KT 10SM 31/16 A2991 RMK AO2 SLP131 T03110161 $
KPTV 231756Z AUTO 23007KT 10SM 29/16 A2993 RMK AO2 SLP139 T02940161 10294 20189 58005 $
KPTV 231656Z AUTO 21007KT 10SM 28/16 A2994 RMK AO2 SLP143 T02780156 $
KPTV 231556Z AUTO 21004KT 10SM 25/16 A2994 RMK AO2 SLP144 T02500156 $
KPTV 231456Z AUTO 18004KT 10SM 23/14 A2994 RMK AO2 SLP144 T02280144 51007 $
KPTV 231356Z AUTO 19003KT 10SM 21/13 A2994 RMK AO2 SLP143 T02060133 $
KPTV 231256Z AUTO 15005KT 10SM 19/13 A2993 RMK AO2 SLP138 T01940133 $
KPTV 231156Z AUTO 00000KT 10SM 19/14 A2992 RMK AO2 SLP136 T01940144 10250 20194 53001 $
KPTV 231056Z AUTO 17004KT 10SM 20/14 A2992 RMK AO2 SLP134 T02000139 $
KPTV 230956Z AUTO 15004KT 10SM 21/14 A2992 RMK AO2 SLP136 T02110144 $
KPTV 230856Z AUTO 21003KT 10SM 21/15 A2992 RMK AO2 SLP136 T02110150 58003 $
KPTV 230756Z AUTO 14006KT 10SM 22/15 A2993 RMK AO2 SLP140 T02170150 $
KPTV 230656Z AUTO 00000KT 10SM 23/16 A2993 RMK AO2 SLP139 T02280161 403670189 $
KPTV 230556Z AUTO 00000KT 10SM 24/17 A2993 RMK AO2 SLP140 T02440172 10367 20239 51013 $
KPTV 230456Z AUTO 00000KT 10SM 25/17 A2993 RMK AO2 SLP140 T02500167 $
KPTV 230256Z AUTO 30005KT 10SM 30/16 A2989 RMK AO2 SLP127 T03000161 55001 $
KPTV 230156Z AUTO 31007KT 10SM 34/16 A2988 RMK AO2 SLP121 T03390156 $